Time;durP1;ratioP1;P1;durP2;ratioP2;P2;SDS_P1;SDS_P2;PMS_P1;PMS_P2;Temp;Humidity;BMP_temperature;BMP_pressure;BME280_temperature;BME280_humidity;BME280_pressure;Samples;Min_cycle;Max_cycle;Signal;HPM_P1;HPM_P2
2022/12/19 00:01:32;;;;;;;28.42;14.98;;;;;;;;;;4977135;28;20030;-76
2022/12/19 00:03:59;;;;;;;35.58;16.65;;;;;;;;;;4977266;28;20110;-76
2022/12/19 00:06:25;;;;;;;32.65;15.43;;;;;;;;;;4977063;28;20113;-76
2022/12/19 00:08:52;;;;;;;32.72;16.27;;;;;;;;;;4976955;28;20054;-76
2022/12/19 00:11:19;;;;;;;38.17;17.73;;;;;;;;;;4977050;28;20497;-75
2022/12/19 00:13:46;;;;;;;40.92;18.38;;;;;;;;;;4976616;28;20031;-75
2022/12/19 00:16:13;;;;;;;34.53;15.43;;;;;;;;;;4976570;28;20095;-76
2022/12/19 00:18:43;;;;;;;30.70;15.55;;;;;;;;;;4975972;28;20363;-76
2022/12/19 00:21:10;;;;;;;37.38;17.77;;;;;;;;;;4976689;28;20039;-74
2022/12/19 00:23:36;;;;;;;30.45;14.90;;;;;;;;;;4976793;28;20027;-76
2022/12/19 00:26:07;;;;;;;32.80;15.90;;;;;;;;;;4976707;28;20466;-75
2022/12/19 00:28:34;;;;;;;35.83;17.35;;;;;;;;;;4976641;28;20034;-75
2022/12/19 00:31:00;;;;;;;36.17;17.65;;;;;;;;;;4976567;28;20042;-75
2022/12/19 00:33:26;;;;;;;28.05;14.35;;;;;;;;;;4976622;28;20062;-76
2022/12/19 00:35:59;;;;;;;35.03;15.85;;;;;;;;;;4976523;28;20054;-76
2022/12/19 00:38:25;;;;;;;31.95;16.60;;;;;;;;;;4976461;28;20027;-76
2022/12/19 00:40:51;;;;;;;37.20;17.58;;;;;;;;;;4976319;28;20402;-76
2022/12/19 00:43:17;;;;;;;34.83;17.55;;;;;;;;;;4976323;28;20030;-76
2022/12/19 00:45:43;;;;;;;36.28;16.65;;;;;;;;;;4976351;28;20031;-75
2022/12/19 00:48:09;;;;;;;25.55;12.45;;;;;;;;;;4976217;28;20031;-76
2022/12/19 00:50:34;;;;;;;34.67;16.52;;;;;;;;;;4976262;28;20034;-75
2022/12/19 00:53:01;;;;;;;39.78;18.88;;;;;;;;;;4976250;28;20031;-76
2022/12/19 00:55:27;;;;;;;37.40;18.08;;;;;;;;;;4976515;28;20027;-76
2022/12/19 00:57:53;;;;;;;41.90;19.52;;;;;;;;;;4975861;28;20062;-76
2022/12/19 01:00:19;;;;;;;41.35;19.73;;;;;;;;;;4976067;28;20031;-75
2022/12/19 01:02:45;;;;;;;40.40;18.98;;;;;;;;;;4975933;28;20038;-75
2022/12/19 01:05:11;;;;;;;40.83;19.85;;;;;;;;;;4976135;28;20031;-76
2022/12/19 01:07:37;;;;;;;35.95;16.35;;;;;;;;;;4976169;28;20027;-75
2022/12/19 01:10:03;;;;;;;37.28;16.13;;;;;;;;;;4975831;28;20054;-75
2022/12/19 01:12:44;;;;;;;41.97;18.67;;;;;;;;;;4975748;28;20038;-75
2022/12/19 01:15:11;;;;;;;37.35;17.15;;;;;;;;;;4975955;28;20030;-75
2022/12/19 01:17:37;;;;;;;41.28;18.85;;;;;;;;;;4975745;28;20019;-76
2022/12/19 01:20:03;;;;;;;39.60;18.42;;;;;;;;;;4975456;28;20533;-76
2022/12/19 01:22:29;;;;;;;40.17;18.60;;;;;;;;;;4975742;28;20031;-75
2022/12/19 01:24:55;;;;;;;38.78;18.90;;;;;;;;;;4975602;28;20035;-75
2022/12/19 01:27:21;;;;;;;36.58;17.13;;;;;;;;;;4975652;28;20030;-76
2022/12/19 01:29:47;;;;;;;37.38;17.77;;;;;;;;;;4975207;28;20045;-76
2022/12/19 01:32:13;;;;;;;42.03;17.73;;;;;;;;;;4975560;28;20027;-75
2022/12/19 01:34:39;;;;;;;41.60;19.27;;;;;;;;;;4975491;28;20377;-76
2022/12/19 01:37:05;;;;;;;37.95;16.52;;;;;;;;;;4975351;28;20161;-76
2022/12/19 01:39:31;;;;;;;28.77;12.85;;;;;;;;;;4975364;28;20027;-75
2022/12/19 01:41:57;;;;;;;38.28;18.35;;;;;;;;;;4975347;28;20053;-76
2022/12/19 01:44:24;;;;;;;39.58;17.92;;;;;;;;;;4975257;28;20082;-75
2022/12/19 01:46:52;;;;;;;39.72;18.10;;;;;;;;;;4975252;28;20446;-75
2022/12/19 01:49:21;;;;;;;43.67;20.30;;;;;;;;;;4975092;28;20150;-76
2022/12/19 01:51:48;;;;;;;35.38;17.13;;;;;;;;;;4975171;28;20553;-76
2022/12/19 01:54:17;;;;;;;39.92;18.67;;;;;;;;;;4975082;28;20042;-75
2022/12/19 01:56:45;;;;;;;40.50;18.25;;;;;;;;;;4975056;28;20022;-75
2022/12/19 01:59:15;;;;;;;39.08;17.35;;;;;;;;;;4974709;28;20050;-76
2022/12/19 02:01:41;;;;;;;44.20;18.52;;;;;;;;;;4975118;28;20037;-75
2022/12/19 02:04:07;;;;;;;44.63;19.45;;;;;;;;;;4975061;28;20031;-76
2022/12/19 02:06:34;;;;;;;44.58;20.30;;;;;;;;;;4975008;28;20035;-76
2022/12/19 02:09:00;;;;;;;37.25;19.10;;;;;;;;;;4974881;28;20482;-75
2022/12/19 02:11:26;;;;;;;45.72;19.63;;;;;;;;;;4974961;28;20022;-75
2022/12/19 02:13:52;;;;;;;36.38;17.35;;;;;;;;;;4974876;28;20516;-76
2022/12/19 02:16:18;;;;;;;40.47;18.75;;;;;;;;;;4974839;28;20035;-76
2022/12/19 02:18:51;;;;;;;40.05;18.65;;;;;;;;;;4974998;28;20041;-76
2022/12/19 02:21:36;;;;;;;42.28;19.77;;;;;;;;;;4975041;28;20034;-76
2022/12/19 02:24:13;;;;;;;42.95;19.58;;;;;;;;;;4974606;28;20466;-76
2022/12/19 02:26:42;;;;;;;38.55;18.88;;;;;;;;;;4974876;28;20055;-76
2022/12/19 02:29:08;;;;;;;39.83;18.58;;;;;;;;;;4975026;28;20023;-76
2022/12/19 02:31:39;;;;;;;46.22;20.27;;;;;;;;;;4974693;28;20062;-76
2022/12/19 02:34:18;;;;;;;43.75;18.08;;;;;;;;;;4974643;28;20488;-76
2022/12/19 02:36:56;;;;;;;41.58;19.80;;;;;;;;;;4974839;28;20031;-76
2022/12/19 02:39:29;;;;;;;31.27;15.52;;;;;;;;;;4974648;28;20478;-76
2022/12/19 02:41:56;;;;;;;37.80;17.00;;;;;;;;;;4977944;28;20058;-76
2022/12/19 02:44:37;;;;;;;41.97;18.83;;;;;;;;;;4978462;28;20023;-75
2022/12/19 02:47:04;;;;;;;36.78;15.95;;;;;;;;;;4978574;28;20374;-76
2022/12/19 02:49:31;;;;;;;37.03;17.65;;;;;;;;;;4978418;28;20031;-75
2022/12/19 02:51:58;;;;;;;32.72;15.80;;;;;;;;;;5006767;28;20413;-76
2022/12/19 02:54:24;;;;;;;40.60;18.17;;;;;;;;;;5017304;28;20018;-76
2022/12/19 02:57:06;;;;;;;36.45;16.45;;;;;;;;;;5017281;28;20014;-76
2022/12/19 02:59:55;;;;;;;31.67;15.38;;;;;;;;;;5016862;28;20400;-75
2022/12/19 03:02:41;;;;;;;38.60;17.98;;;;;;;;;;5006960;28;20052;-75
2022/12/19 03:05:15;;;;;;;39.65;18.80;;;;;;;;;;5016740;28;20458;-75
2022/12/19 03:07:41;;;;;;;32.63;15.35;;;;;;;;;;5017308;28;20427;-75
2022/12/19 03:10:07;;;;;;;35.72;18.05;;;;;;;;;;5017078;28;20034;-76
2022/12/19 03:12:54;;;;;;;40.58;18.23;;;;;;;;;;5017377;28;20464;-75
2022/12/19 03:15:21;;;;;;;44.30;17.65;;;;;;;;;;5016976;28;20116;-76
2022/12/19 03:17:48;;;;;;;43.72;19.60;;;;;;;;;;5016987;28;20030;-76
2022/12/19 03:20:32;;;;;;;34.72;17.48;;;;;;;;;;5016740;28;20029;-76
2022/12/19 03:22:58;;;;;;;37.10;17.08;;;;;;;;;;5017116;28;20392;-75
2022/12/19 03:25:25;;;;;;;37.83;17.52;;;;;;;;;;5017250;28;20030;-76
2022/12/19 03:27:52;;;;;;;34.22;16.55;;;;;;;;;;5016821;28;20597;-76
2022/12/19 03:30:19;;;;;;;35.75;17.13;;;;;;;;;;5016739;28;20034;-76
2022/12/19 03:32:46;;;;;;;35.85;15.45;;;;;;;;;;5016705;28;20028;-75
2022/12/19 03:35:22;;;;;;;34.80;15.75;;;;;;;;;;5016563;28;20033;-76
2022/12/19 03:37:50;;;;;;;36.63;16.63;;;;;;;;;;5016681;28;20076;-76
2022/12/19 03:40:17;;;;;;;36.40;16.45;;;;;;;;;;5016323;28;20065;-76
2022/12/19 03:45:40;;;;;;;33.67;15.90;;;;;;;;;;5016724;28;20567;-76
2022/12/19 03:48:27;;;;;;;33.20;15.18;;;;;;;;;;5016852;28;20053;-76
2022/12/19 03:50:59;;;;;;;31.25;14.77;;;;;;;;;;5016221;28;20480;-76
2022/12/19 03:53:33;;;;;;;25.33;12.98;;;;;;;;;;5016156;28;20109;-76
2022/12/19 03:56:04;;;;;;;32.80;14.35;;;;;;;;;;5016235;28;20057;-76
2022/12/19 03:58:32;;;;;;;36.10;16.92;;;;;;;;;;5015985;28;20049;-76
2022/12/19 04:00:59;;;;;;;36.60;17.55;;;;;;;;;;5016016;28;20034;-76
2022/12/19 04:03:26;;;;;;;34.45;17.33;;;;;;;;;;5016183;28;20033;-76
2022/12/19 04:05:53;;;;;;;32.50;15.05;;;;;;;;;;5016146;28;20030;-76
2022/12/19 04:08:19;;;;;;;32.55;16.20;;;;;;;;;;5016128;28;20490;-76
2022/12/19 04:10:56;;;;;;;35.78;15.50;;;;;;;;;;5016163;28;20053;-76
2022/12/19 04:13:45;;;;;;;33.85;17.08;;;;;;;;;;5015959;28;20030;-76
2022/12/19 04:16:28;;;;;;;31.90;15.70;;;;;;;;;;5005686;28;20092;-76
2022/12/19 04:19:02;;;;;;;38.90;15.00;;;;;;;;;;5016132;28;20030;-76
2022/12/19 04:21:34;;;;;;;32.20;15.13;;;;;;;;;;5015752;28;20120;-76
2022/12/19 04:24:03;;;;;;;39.22;16.70;;;;;;;;;;5015841;28;20037;-76
2022/12/19 04:26:30;;;;;;;44.95;17.05;;;;;;;;;;4998141;28;20483;-76
2022/12/19 04:29:00;;;;;;;37.15;16.80;;;;;;;;;;5015672;28;20029;-76
2022/12/19 04:31:26;;;;;;;34.67;16.77;;;;;;;;;;5015537;28;20064;-76
2022/12/19 04:33:52;;;;;;;25.77;12.75;;;;;;;;;;4998116;28;20420;-76
2022/12/19 04:36:18;;;;;;;28.80;15.18;;;;;;;;;;5015524;28;20050;-76
2022/12/19 04:38:44;;;;;;;31.35;14.90;;;;;;;;;;5015745;28;20022;-76
2022/12/19 04:41:10;;;;;;;29.77;14.93;;;;;;;;;;5015592;28;20038;-76
2022/12/19 04:43:36;;;;;;;28.85;13.88;;;;;;;;;;5015205;28;20037;-75
2022/12/19 04:46:02;;;;;;;32.42;14.98;;;;;;;;;;5015352;28;20521;-76
2022/12/19 04:48:28;;;;;;;30.38;15.48;;;;;;;;;;5015218;28;20026;-76
2022/12/19 04:50:55;;;;;;;27.83;11.20;;;;;;;;;;5015251;28;20053;-76
2022/12/19 04:53:21;;;;;;;30.13;14.02;;;;;;;;;;5015233;28;20018;-76
2022/12/19 04:55:47;;;;;;;23.02;11.90;;;;;;;;;;5015496;28;20029;-76
2022/12/19 04:58:13;;;;;;;28.52;13.65;;;;;;;;;;5015052;28;20440;-76
2022/12/19 05:00:39;;;;;;;32.33;15.95;;;;;;;;;;5014988;28;20077;-76
2022/12/19 05:03:05;;;;;;;29.40;14.52;;;;;;;;;;5014340;28;20058;-76
2022/12/19 05:05:31;;;;;;;30.15;14.05;;;;;;;;;;5015243;28;20364;-76
2022/12/19 05:07:57;;;;;;;28.95;14.85;;;;;;;;;;5014922;28;20072;-76
2022/12/19 05:10:23;;;;;;;28.77;13.13;;;;;;;;;;5014989;28;20108;-76
2022/12/19 05:12:49;;;;;;;29.17;14.27;;;;;;;;;;5014855;28;20024;-76
2022/12/19 05:15:16;;;;;;;29.67;14.35;;;;;;;;;;5012122;28;20038;-76
2022/12/19 05:17:42;;;;;;;31.65;14.80;;;;;;;;;;4995143;28;20034;-76
2022/12/19 05:20:08;;;;;;;29.27;14.27;;;;;;;;;;4994880;28;20093;-77
2022/12/19 05:22:34;;;;;;;22.45;13.18;;;;;;;;;;4994861;28;20030;-76
2022/12/19 05:25:00;;;;;;;28.73;13.38;;;;;;;;;;4994916;28;20026;-77
2022/12/19 05:27:26;;;;;;;26.13;13.88;;;;;;;;;;4995112;28;20072;-76
2022/12/19 05:29:52;;;;;;;26.70;12.85;;;;;;;;;;4994999;28;20650;-76
2022/12/19 05:32:18;;;;;;;23.67;12.73;;;;;;;;;;4994841;28;20116;-76
2022/12/19 05:34:44;;;;;;;25.25;13.27;;;;;;;;;;4995025;28;20033;-76
2022/12/19 05:37:10;;;;;;;22.15;11.82;;;;;;;;;;4994781;28;20089;-76
2022/12/19 05:39:36;;;;;;;27.00;14.02;;;;;;;;;;4994322;28;20041;-76
2022/12/19 05:42:02;;;;;;;21.75;10.65;;;;;;;;;;4986237;28;20031;-77
2022/12/19 05:44:28;;;;;;;24.63;12.00;;;;;;;;;;4975369;28;20117;-77
2022/12/19 05:46:54;;;;;;;20.35;11.98;;;;;;;;;;4975380;28;20031;-76
2022/12/19 05:49:20;;;;;;;21.75;11.35;;;;;;;;;;4975427;28;20027;-76
2022/12/19 05:51:46;;;;;;;15.63;8.30;;;;;;;;;;4975376;28;20027;-76
2022/12/19 05:54:12;;;;;;;20.25;10.35;;;;;;;;;;4975537;28;20030;-76
2022/12/19 05:56:38;;;;;;;20.00;10.98;;;;;;;;;;4975248;28;20034;-76
2022/12/19 05:59:05;;;;;;;19.05;9.57;;;;;;;;;;4974751;28;20053;-76
2022/12/19 06:01:31;;;;;;;19.02;11.13;;;;;;;;;;4975105;28;20125;-76
2022/12/19 06:03:57;;;;;;;21.80;10.18;;;;;;;;;;4974850;28;20062;-76
2022/12/19 06:06:25;;;;;;;26.70;9.70;;;;;;;;;;4975086;28;20455;-77
2022/12/19 06:08:55;;;;;;;21.88;9.90;;;;;;;;;;4974815;28;20023;-76
2022/12/19 06:11:21;;;;;;;16.27;9.55;;;;;;;;;;4975124;28;20097;-76
2022/12/19 06:13:47;;;;;;;18.92;9.88;;;;;;;;;;4975094;28;20031;-76
2022/12/19 06:16:14;;;;;;;18.05;9.23;;;;;;;;;;4974888;28;20049;-76
2022/12/19 06:18:40;;;;;;;13.15;7.65;;;;;;;;;;4974761;28;20109;-76
2022/12/19 06:21:07;;;;;;;17.58;9.40;;;;;;;;;;4974681;28;20585;-76
2022/12/19 06:23:34;;;;;;;13.43;7.75;;;;;;;;;;4974827;28;20461;-76
2022/12/19 06:26:01;;;;;;;14.88;8.43;;;;;;;;;;4974731;28;20490;-76
2022/12/19 06:28:29;;;;;;;14.77;8.48;;;;;;;;;;4974786;28;20473;-76
2022/12/19 06:30:56;;;;;;;14.98;7.72;;;;;;;;;;4974757;28;20422;-76
2022/12/19 06:33:22;;;;;;;13.73;7.63;;;;;;;;;;4974651;28;20027;-76
2022/12/19 06:35:48;;;;;;;13.35;7.50;;;;;;;;;;4974744;28;20023;-77
2022/12/19 06:38:14;;;;;;;11.73;7.10;;;;;;;;;;4974709;28;20370;-76
2022/12/19 06:43:26;;;;;;;10.93;6.55;;;;;;;;;;4974649;28;20094;-76
2022/12/19 06:45:52;;;;;;;12.23;6.60;;;;;;;;;;4957153;28;20023;-76
2022/12/19 06:48:18;;;;;;;12.05;6.97;;;;;;;;;;4974592;28;20486;-76
2022/12/19 06:50:44;;;;;;;11.63;6.90;;;;;;;;;;4974560;28;20030;-76
2022/12/19 06:53:10;;;;;;;11.75;7.35;;;;;;;;;;4974578;28;20034;-77
2022/12/19 06:55:37;;;;;;;11.18;7.22;;;;;;;;;;4973945;28;20031;-77
2022/12/19 06:58:03;;;;;;;12.18;6.43;;;;;;;;;;4990582;28;20050;-77
2022/12/19 07:00:30;;;;;;;12.32;7.00;;;;;;;;;;4993833;28;20454;-77
2022/12/19 07:02:56;;;;;;;9.27;6.20;;;;;;;;;;4993758;28;20034;-76
2022/12/19 07:05:22;;;;;;;8.10;4.95;;;;;;;;;;4993971;28;20492;-76
2022/12/19 07:07:49;;;;;;;10.73;6.20;;;;;;;;;;4993816;28;20031;-76
2022/12/19 07:10:15;;;;;;;10.32;6.20;;;;;;;;;;4993649;28;20078;-76
2022/12/19 07:12:41;;;;;;;11.43;6.03;;;;;;;;;;4993538;28;20505;-76
2022/12/19 07:15:07;;;;;;;11.40;6.38;;;;;;;;;;4993845;28;20105;-76
2022/12/19 07:17:33;;;;;;;10.18;6.68;;;;;;;;;;4994079;28;20018;-76
2022/12/19 07:19:59;;;;;;;10.15;6.55;;;;;;;;;;4993747;28;20030;-76
2022/12/19 07:22:27;;;;;;;9.88;5.93;;;;;;;;;;4993673;28;20508;-76
2022/12/19 07:24:54;;;;;;;9.15;5.50;;;;;;;;;;4993848;28;20038;-76
2022/12/19 07:27:21;;;;;;;9.73;6.45;;;;;;;;;;4995774;28;20532;-76
2022/12/19 07:29:47;;;;;;;9.45;5.53;;;;;;;;;;4997436;28;20357;-76
2022/12/19 07:32:13;;;;;;;10.75;5.65;;;;;;;;;;4997166;28;20026;-76
2022/12/19 07:34:39;;;;;;;9.80;6.75;;;;;;;;;;4997223;28;20047;-77
2022/12/19 07:37:06;;;;;;;10.13;6.38;;;;;;;;;;4997365;28;20031;-76
2022/12/19 07:39:32;;;;;;;10.32;6.32;;;;;;;;;;4997252;28;20033;-76
2022/12/19 07:41:58;;;;;;;8.30;5.45;;;;;;;;;;4996993;28;20034;-76
2022/12/19 07:44:24;;;;;;;11.15;6.47;;;;;;;;;;4996794;28;20058;-76
2022/12/19 07:46:50;;;;;;;11.05;7.18;;;;;;;;;;4996900;28;20037;-76
2022/12/19 07:49:16;;;;;;;10.00;6.43;;;;;;;;;;4997105;28;20362;-76
2022/12/19 07:51:42;;;;;;;11.65;6.85;;;;;;;;;;4996870;28;20065;-77
2022/12/19 07:54:08;;;;;;;10.60;6.78;;;;;;;;;;4996637;28;20030;-76
2022/12/19 07:56:34;;;;;;;8.98;6.13;;;;;;;;;;4996614;28;20019;-76
2022/12/19 07:59:00;;;;;;;11.93;7.93;;;;;;;;;;4996513;28;20458;-77
2022/12/19 08:01:26;;;;;;;10.50;7.18;;;;;;;;;;4996621;28;20053;-76
2022/12/19 08:03:52;;;;;;;11.32;7.85;;;;;;;;;;4996448;28;20041;-77
2022/12/19 08:06:19;;;;;;;11.55;7.75;;;;;;;;;;4996679;28;20469;-76
2022/12/19 08:08:45;;;;;;;12.45;7.30;;;;;;;;;;4996408;28;20031;-77
2022/12/19 08:11:12;;;;;;;15.18;7.40;;;;;;;;;;4995150;28;20045;-76
2022/12/19 08:13:38;;;;;;;10.52;7.50;;;;;;;;;;4980411;28;20032;-76
2022/12/19 08:16:04;;;;;;;12.23;7.38;;;;;;;;;;4976749;28;20027;-76
2022/12/19 08:18:30;;;;;;;12.18;8.20;;;;;;;;;;4976868;28;20481;-76
2022/12/19 08:20:56;;;;;;;11.52;7.90;;;;;;;;;;4969381;28;20038;-76
2022/12/19 08:23:23;;;;;;;11.07;8.00;;;;;;;;;;4996132;28;20485;-77
2022/12/19 08:25:48;;;;;;;12.23;7.95;;;;;;;;;;4996212;28;20054;-76
2022/12/19 08:28:15;;;;;;;13.40;8.43;;;;;;;;;;4996014;28;20058;-77
2022/12/19 08:30:41;;;;;;;12.27;8.55;;;;;;;;;;4996066;28;20435;-77
2022/12/19 08:33:07;;;;;;;12.38;7.90;;;;;;;;;;4996189;28;20023;-76
2022/12/19 08:35:35;;;;;;;11.35;7.55;;;;;;;;;;4995998;28;20100;-76
2022/12/19 08:38:01;;;;;;;11.82;8.23;;;;;;;;;;4995154;28;20030;-76
2022/12/19 08:40:27;;;;;;;13.80;8.55;;;;;;;;;;4995644;28;20096;-76
2022/12/19 08:42:53;;;;;;;14.35;8.63;;;;;;;;;;4995762;28;20041;-77
2022/12/19 08:45:20;;;;;;;13.20;8.05;;;;;;;;;;4995736;28;20034;-76
2022/12/19 08:47:46;;;;;;;12.65;8.40;;;;;;;;;;4995646;28;20080;-76
2022/12/19 08:50:13;;;;;;;14.55;8.43;;;;;;;;;;4995452;28;20046;-76
2022/12/19 08:52:38;;;;;;;13.70;9.20;;;;;;;;;;4995965;28;20026;-76
2022/12/19 08:55:05;;;;;;;15.07;9.70;;;;;;;;;;4995505;28;20032;-76
2022/12/19 08:57:31;;;;;;;15.02;10.30;;;;;;;;;;4995714;28;20401;-76
2022/12/19 08:59:57;;;;;;;17.55;10.60;;;;;;;;;;4995054;28;20058;-76
2022/12/19 09:02:23;;;;;;;12.70;8.82;;;;;;;;;;4986383;28;20089;-77
2022/12/19 09:04:49;;;;;;;14.95;9.82;;;;;;;;;;4975767;28;20029;-76
2022/12/19 09:07:15;;;;;;;14.57;9.05;;;;;;;;;;4976021;28;20091;-77
2022/12/19 09:09:41;;;;;;;14.70;10.27;;;;;;;;;;4988827;28;20508;-76
2022/12/19 09:12:07;;;;;;;14.50;9.50;;;;;;;;;;4995279;28;20037;-76
2022/12/19 09:14:34;;;;;;;13.48;9.27;;;;;;;;;;4995128;28;20023;-76
2022/12/19 09:17:00;;;;;;;12.63;8.52;;;;;;;;;;4978505;28;20034;-76
2022/12/19 09:19:26;;;;;;;15.95;10.10;;;;;;;;;;4975224;28;20027;-76
2022/12/19 09:21:52;;;;;;;12.60;9.48;;;;;;;;;;4975701;28;20027;-76
2022/12/19 09:24:18;;;;;;;15.93;9.80;;;;;;;;;;4975659;28;20590;-76
2022/12/19 09:26:44;;;;;;;15.73;9.68;;;;;;;;;;4975881;28;20386;-76
2022/12/19 09:29:11;;;;;;;13.35;9.73;;;;;;;;;;4992986;28;20139;-77
2022/12/19 09:31:37;;;;;;;18.55;9.73;;;;;;;;;;4977474;28;20038;-76
2022/12/19 09:34:03;;;;;;;14.43;9.10;;;;;;;;;;4995093;28;20026;-77
2022/12/19 09:36:29;;;;;;;14.93;9.18;;;;;;;;;;4994882;28;20018;-76
2022/12/19 09:38:56;;;;;;;13.27;9.15;;;;;;;;;;4994868;28;20030;-76
2022/12/19 09:41:50;;;;;;;12.20;8.32;;;;;;;;;;4994439;28;20042;-77
2022/12/19 09:44:31;;;;;;;14.95;8.75;;;;;;;;;;4994937;28;20026;-77
2022/12/19 09:47:01;;;;;;;13.13;8.25;;;;;;;;;;4994363;28;20076;-77
2022/12/19 09:49:37;;;;;;;14.27;8.52;;;;;;;;;;4994112;28;20026;-77
2022/12/19 09:52:24;;;;;;;14.70;9.23;;;;;;;;;;5008929;28;20026;-77
2022/12/19 09:55:11;;;;;;;14.40;8.95;;;;;;;;;;5002102;28;20077;-77
2022/12/19 09:57:37;;;;;;;14.82;9.07;;;;;;;;;;4993629;28;20026;-77
2022/12/19 10:00:11;;;;;;;13.02;8.68;;;;;;;;;;4994215;28;20500;-77
2022/12/19 10:02:43;;;;;;;12.68;8.52;;;;;;;;;;4994674;28;20034;-77
2022/12/19 10:05:28;;;;;;;13.13;8.63;;;;;;;;;;4994139;28;20022;-77
2022/12/19 10:07:54;;;;;;;12.90;8.43;;;;;;;;;;4994532;28;20121;-77
2022/12/19 10:10:29;;;;;;;13.55;7.63;;;;;;;;;;4994507;28;20026;-77
2022/12/19 10:13:11;;;;;;;13.13;7.97;;;;;;;;;;4994516;28;20026;-77
2022/12/19 10:15:42;;;;;;;14.13;8.20;;;;;;;;;;4994355;28;20034;-77
2022/12/19 10:18:37;;;;;;;13.40;8.25;;;;;;;;;;4994416;28;20073;-77
2022/12/19 10:21:03;;;;;;;14.98;7.65;;;;;;;;;;4985242;28;20093;-77
2022/12/19 10:23:48;;;;;;;12.43;7.70;;;;;;;;;;4994821;28;20026;-77
2022/12/19 10:26:22;;;;;;;11.13;7.70;;;;;;;;;;4994093;28;20026;-77
2022/12/19 10:28:48;;;;;;;10.63;6.72;;;;;;;;;;4994189;28;20413;-77
2022/12/19 10:31:33;;;;;;;11.25;6.97;;;;;;;;;;4993843;28;20478;-77
2022/12/19 10:34:12;;;;;;;13.70;8.35;;;;;;;;;;4994146;28;20030;-77
2022/12/19 10:36:42;;;;;;;11.35;7.10;;;;;;;;;;4994183;28;20040;-77
2022/12/19 10:39:28;;;;;;;12.52;7.65;;;;;;;;;;4994195;28;20109;-77
2022/12/19 10:42:01;;;;;;;13.30;7.78;;;;;;;;;;4973253;28;20046;-77
2022/12/19 10:44:29;;;;;;;10.82;7.97;;;;;;;;;;4994126;28;20418;-77
2022/12/19 10:46:55;;;;;;;10.93;6.88;;;;;;;;;;4994057;28;20022;-77
2022/12/19 10:49:24;;;;;;;8.68;6.90;;;;;;;;;;4994168;28;20034;-77
2022/12/19 10:51:57;;;;;;;13.73;8.15;;;;;;;;;;4993945;28;20368;-77
2022/12/19 10:54:23;;;;;;;10.10;6.30;;;;;;;;;;4994319;28;20022;-77
2022/12/19 10:56:49;;;;;;;10.93;7.55;;;;;;;;;;4994215;28;20084;-77
2022/12/19 10:59:17;;;;;;;9.57;7.13;;;;;;;;;;4993732;28;20046;-77
2022/12/19 11:01:43;;;;;;;12.90;7.60;;;;;;;;;;4995127;28;20030;-77
2022/12/19 11:04:12;;;;;;;11.65;6.35;;;;;;;;;;4997708;28;20532;-77
2022/12/19 11:06:45;;;;;;;12.70;7.55;;;;;;;;;;4997618;28;20101;-77
2022/12/19 11:09:18;;;;;;;11.13;6.57;;;;;;;;;;4997978;28;20077;-77
2022/12/19 11:11:46;;;;;;;12.50;6.95;;;;;;;;;;4997561;28;20034;-77
2022/12/19 11:14:23;;;;;;;8.95;5.70;;;;;;;;;;4997714;28;20054;-76
2022/12/19 11:16:49;;;;;;;10.20;6.50;;;;;;;;;;4997350;28;20038;-77
2022/12/19 11:19:20;;;;;;;10.43;6.80;;;;;;;;;;4997462;28;20022;-77
2022/12/19 11:21:46;;;;;;;10.77;5.57;;;;;;;;;;4997361;28;20026;-77
2022/12/19 11:24:18;;;;;;;10.18;6.63;;;;;;;;;;4997477;28;20031;-77
2022/12/19 11:26:51;;;;;;;9.43;6.43;;;;;;;;;;4997214;28;20485;-77
2022/12/19 11:29:40;;;;;;;8.93;6.35;;;;;;;;;;4979782;28;20026;-78
2022/12/19 11:32:21;;;;;;;8.48;5.63;;;;;;;;;;4996911;28;20038;-76
2022/12/19 11:34:47;;;;;;;;;;;;;;;;;;4997406;28;20034;-76
2022/12/19 11:37:12;;;;;;;9.07;6.53;;;;;;;;;;4994611;28;19936;-77
2022/12/19 11:39:51;;;;;;;12.63;7.30;;;;;;;;;;4996392;28;20018;-77
2022/12/19 11:42:53;;;;;;;10.15;6.88;;;;;;;;;;4992195;28;20116;-77
2022/12/19 11:45:42;;;;;;;10.63;7.00;;;;;;;;;;4932335;29;20028;-77
2022/12/19 11:48:28;;;;;;;10.13;7.10;;;;;;;;;;4981122;28;20071;-77
2022/12/19 11:51:13;;;;;;;8.98;6.70;;;;;;;;;;4996538;28;20046;-77
2022/12/19 11:53:42;;;;;;;10.13;7.22;;;;;;;;;;4977327;28;20027;-77
2022/12/19 11:56:16;;;;;;;9.70;6.95;;;;;;;;;;4977278;28;20062;-77
2022/12/19 11:58:47;;;;;;;9.20;6.57;;;;;;;;;;4977129;28;20085;-77
2022/12/19 12:01:16;;;;;;;10.63;6.30;;;;;;;;;;4977195;28;20039;-77
2022/12/19 12:03:57;;;;;;;9.80;6.80;;;;;;;;;;4987781;28;20023;-77
2022/12/19 12:06:24;;;;;;;11.45;7.07;;;;;;;;;;4996538;28;20512;-77
2022/12/19 12:09:09;;;;;;;9.48;6.85;;;;;;;;;;4996494;28;20036;-77
2022/12/19 12:11:50;;;;;;;9.43;6.35;;;;;;;;;;4996470;28;20420;-77
2022/12/19 12:14:17;;;;;;;10.77;6.57;;;;;;;;;;4996384;28;20096;-77
2022/12/19 12:17:08;;;;;;;10.85;6.20;;;;;;;;;;4996638;28;20018;-77
2022/12/19 12:19:54;;;;;;;7.82;5.93;;;;;;;;;;4996325;28;20619;-77
2022/12/19 12:22:26;;;;;;;8.35;6.63;;;;;;;;;;4996157;28;20412;-78
2022/12/19 12:24:58;;;;;;;10.88;5.93;;;;;;;;;;4996318;28;20038;-77
2022/12/19 12:27:35;;;;;;;9.82;6.28;;;;;;;;;;4996369;28;20026;-77
2022/12/19 12:30:09;;;;;;;9.60;5.70;;;;;;;;;;4996578;28;20026;-78
2022/12/19 12:32:47;;;;;;;9.88;5.80;;;;;;;;;;4996456;28;20023;-77
2022/12/19 12:35:34;;;;;;;8.93;5.85;;;;;;;;;;4996214;28;20422;-77
2022/12/19 12:38:00;;;;;;;8.40;5.60;;;;;;;;;;4982006;28;20030;-77
2022/12/19 12:40:44;;;;;;;8.23;5.78;;;;;;;;;;4995873;28;20034;-77
2022/12/19 12:43:21;;;;;;;8.45;5.30;;;;;;;;;;4995645;28;20022;-77
2022/12/19 12:45:48;;;;;;;9.50;5.35;;;;;;;;;;4990894;28;20046;-77
2022/12/19 12:48:29;;;;;;;7.68;5.65;;;;;;;;;;4976308;28;20453;-77
2022/12/19 12:50:56;;;;;;;8.15;5.32;;;;;;;;;;4976078;28;20058;-77
2022/12/19 12:53:26;;;;;;;11.15;5.53;;;;;;;;;;4975875;28;20039;-77
2022/12/19 12:55:54;;;;;;;6.30;5.22;;;;;;;;;;4976245;28;20023;-77
2022/12/19 12:58:38;;;;;;;9.88;5.75;;;;;;;;;;4975923;28;20051;-77
2022/12/19 13:01:09;;;;;;;10.13;6.43;;;;;;;;;;4976036;28;20030;-77
2022/12/19 13:03:35;;;;;;;10.55;6.30;;;;;;;;;;4976143;28;20027;-77
2022/12/19 13:06:06;;;;;;;8.90;5.80;;;;;;;;;;4976102;28;20031;-77
2022/12/19 13:08:36;;;;;;;8.55;5.38;;;;;;;;;;4974729;28;20030;-77
2022/12/19 13:11:02;;;;;;;;;;;;;;;;;;4975199;28;20027;-77
2022/12/19 13:13:46;;;;;;;8.35;5.63;;;;;;;;;;4974713;28;19906;-77
2022/12/19 13:16:31;;;;;;;8.95;5.88;;;;;;;;;;4974533;28;20035;-77
2022/12/19 13:19:12;;;;;;;9.73;5.63;;;;;;;;;;4974592;28;20102;-77
2022/12/19 13:21:57;;;;;;;10.13;6.03;;;;;;;;;;4974472;28;20039;-77
2022/12/19 13:24:23;;;;;;;8.88;6.03;;;;;;;;;;4975135;28;20027;-77
2022/12/19 13:26:51;;;;;;;8.95;6.40;;;;;;;;;;4975676;28;20092;-77
2022/12/19 13:29:34;;;;;;;9.32;5.57;;;;;;;;;;4975790;28;20021;-77
2022/12/19 13:32:27;;;;;;;6.97;5.60;;;;;;;;;;4975506;28;20034;-77
2022/12/19 13:34:54;;;;;;;6.70;5.35;;;;;;;;;;4973391;28;20181;-78
2022/12/19 13:37:41;;;;;;;8.35;4.95;;;;;;;;;;4975474;28;20058;-77
2022/12/19 13:40:11;;;;;;;6.93;5.45;;;;;;;;;;4969736;28;20181;-77
2022/12/19 13:45:30;;;;;;;8.38;6.35;;;;;;;;;;4980604;28;20057;-77
2022/12/19 13:47:57;;;;;;;8.70;6.03;;;;;;;;;;4994922;28;20076;-77
2022/12/19 13:50:23;;;;;;;9.40;6.35;;;;;;;;;;4994597;28;20022;-77
2022/12/19 13:52:49;;;;;;;9.60;6.93;;;;;;;;;;4994793;28;20625;-77
2022/12/19 13:55:15;;;;;;;8.57;6.57;;;;;;;;;;4994488;28;20029;-77
2022/12/19 13:57:41;;;;;;;8.65;6.90;;;;;;;;;;4994734;28;20097;-77
2022/12/19 14:00:09;;;;;;;9.80;6.60;;;;;;;;;;4994240;28;20441;-77
2022/12/19 14:02:44;;;;;;;8.77;7.32;;;;;;;;;;4994592;28;20026;-77
2022/12/19 14:05:26;;;;;;;11.00;7.60;;;;;;;;;;4994419;28;20401;-77
2022/12/19 14:07:52;;;;;;;10.30;7.60;;;;;;;;;;4994573;28;20543;-78
2022/12/19 14:10:21;;;;;;;10.13;7.13;;;;;;;;;;4976991;28;20042;-77
2022/12/19 14:15:34;;;;;;;8.57;6.47;;;;;;;;;;4994259;28;20029;-77
2022/12/19 14:18:01;;;;;;;7.90;6.38;;;;;;;;;;4993956;28;20462;-77
2022/12/19 14:20:30;;;;;;;8.90;6.10;;;;;;;;;;4994243;28;20100;-77
2022/12/19 14:22:57;;;;;;;7.93;5.72;;;;;;;;;;4994588;28;20026;-77
2022/12/19 14:25:24;;;;;;;7.82;5.32;;;;;;;;;;4994277;28;20062;-77
2022/12/19 14:27:53;;;;;;;7.95;5.88;;;;;;;;;;4994316;28;20026;-78
2022/12/19 14:30:24;;;;;;;6.40;5.10;;;;;;;;;;4994253;28;20033;-78
2022/12/19 14:32:52;;;;;;;8.25;5.93;;;;;;;;;;4995110;28;20023;-78
2022/12/19 14:35:23;;;;;;;7.50;5.72;;;;;;;;;;4994266;28;20031;-77
2022/12/19 14:37:58;;;;;;;8.75;5.85;;;;;;;;;;4997827;28;20384;-77
2022/12/19 14:40:29;;;;;;;7.95;5.57;;;;;;;;;;5017810;28;20121;-77
2022/12/19 14:45:44;;;;;;;8.70;5.13;;;;;;;;;;5003752;28;20042;-77
2022/12/19 14:48:28;;;;;;;7.82;5.60;;;;;;;;;;4978646;28;20418;-77
2022/12/19 14:51:04;;;;;;;8.07;5.35;;;;;;;;;;4978479;28;20031;-77
2022/12/19 14:53:30;;;;;;;8.45;5.47;;;;;;;;;;4978761;28;20019;-78
2022/12/19 14:56:15;;;;;;;9.73;6.20;;;;;;;;;;4979133;28;20081;-77
2022/12/19 14:58:41;;;;;;;9.20;5.60;;;;;;;;;;4978198;28;20043;-78